Time;durP1;ratioP1;P1;durP2;ratioP2;P2;SDS_P1;SDS_P2;PMS_P1;PMS_P2;Temp;Humidity;BMP_temperature;BMP_pressure;BME280_temperature;BME280_humidity;BME280_pressure;Samples;Min_cycle;Max_cycle;Signal;HPM_P1;HPM_P2
2022/09/14 00:00:35;;;;;;;;;;;20.90;43.50;;;;;;453081;263;1372;-50
2022/09/14 00:02:35;;;;;;;;;;;20.90;43.40;;;;;;453027;263;2110;-50
2022/09/14 00:04:37;;;;;;;;;;;20.90;43.40;;;;;;453063;263;1316;-50
2022/09/14 00:06:38;;;;;;;;;;;20.90;43.40;;;;;;452655;263;1336;-50
2022/09/14 00:08:39;;;;;;;;;;;20.90;43.50;;;;;;452816;263;1271;-50
2022/09/14 00:10:41;;;;;;;;;;;20.90;43.40;;;;;;452628;263;1331;-50
2022/09/14 00:12:42;;;;;;;;;;;20.90;43.40;;;;;;453063;263;1382;-50
2022/09/14 00:14:44;;;;;;;;;;;20.90;43.40;;;;;;453073;263;2181;-50
2022/09/14 00:16:45;;;;;;;;;;;20.90;43.30;;;;;;452581;263;1323;-50
2022/09/14 00:18:46;;;;;;;;;;;20.90;43.40;;;;;;453109;263;1355;-50
2022/09/14 00:20:48;;;;;;;;;;;21.00;43.20;;;;;;452878;263;1297;-50
2022/09/14 00:22:49;;;;;;;;;;;21.00;43.20;;;;;;453115;262;1388;-50
2022/09/14 00:24:50;;;;;;;;;;;21.00;43.30;;;;;;452970;262;1218;-50
2022/09/14 00:26:52;;;;;;;;;;;21.00;43.20;;;;;;453071;263;1357;-50
2022/09/14 00:28:53;;;;;;;;;;;20.90;43.20;;;;;;453052;263;2414;-50
2022/09/14 00:30:54;;;;;;;;;;;20.90;43.20;;;;;;453056;263;1316;-51
2022/09/14 00:32:56;;;;;;;;;;;20.90;43.20;;;;;;453064;263;1543;-50
2022/09/14 00:34:57;;;;;;;;;;;20.90;43.10;;;;;;452666;263;2177;-50
2022/09/14 00:36:58;;;;;;;;;;;20.90;43.20;;;;;;452673;263;1278;-50
2022/09/14 00:39:00;;;;;;;;;;;20.90;43.20;;;;;;452621;263;1416;-50
2022/09/14 00:41:01;;;;;;;;;;;20.90;43.20;;;;;;452654;263;1482;-50
2022/09/14 00:43:02;;;;;;;;;;;20.90;43.20;;;;;;452570;263;1296;-50
2022/09/14 00:45:04;;;;;;;;;;;20.80;43.20;;;;;;452499;263;1330;-50
2022/09/14 00:47:05;;;;;;;;;;;20.90;43.40;;;;;;452824;263;1291;-50
2022/09/14 00:49:06;;;;;;;;;;;20.90;43.50;;;;;;452614;263;1277;-50
2022/09/14 00:51:08;;;;;;;;;;;20.90;43.40;;;;;;452956;263;1241;-50
2022/09/14 00:53:09;;;;;;;;;;;20.90;43.50;;;;;;452578;263;1595;-50
2022/09/14 00:55:11;;;;;;;;;;;20.90;43.40;;;;;;452739;263;2173;-50
2022/09/14 00:57:12;;;;;;;;;;;20.90;43.30;;;;;;452951;263;1244;-51
2022/09/14 00:59:13;;;;;;;;;;;20.90;43.20;;;;;;453039;263;1362;-50
2022/09/14 01:01:14;;;;;;;;;;;20.90;43.30;;;;;;452741;263;1316;-50
2022/09/14 01:03:16;;;;;;;;;;;20.90;43.30;;;;;;452921;263;1277;-50
2022/09/14 01:05:17;;;;;;;;;;;20.90;43.30;;;;;;453083;263;1303;-50
2022/09/14 01:07:18;;;;;;;;;;;20.90;43.20;;;;;;452960;263;1381;-50
2022/09/14 01:09:20;;;;;;;;;;;20.90;43.20;;;;;;452982;263;1425;-50
2022/09/14 01:11:21;;;;;;;;;;;20.90;43.30;;;;;;452905;262;1199;-50
2022/09/14 01:13:22;;;;;;;;;;;20.80;43.20;;;;;;453088;263;1360;-50
2022/09/14 01:15:24;;;;;;;;;;;20.90;43.20;;;;;;453059;263;2221;-50
2022/09/14 01:17:25;;;;;;;;;;;20.90;43.10;;;;;;453046;263;1421;-50
2022/09/14 01:19:26;;;;;;;;;;;20.90;43.20;;;;;;453031;263;1239;-50
2022/09/14 01:21:28;;;;;;;;;;;20.90;43.10;;;;;;453065;262;1333;-50
2022/09/14 01:23:29;;;;;;;;;;;20.90;43.20;;;;;;452657;263;1286;-50
2022/09/14 01:25:30;;;;;;;;;;;20.90;43.10;;;;;;452819;263;1294;-50
2022/09/14 01:27:32;;;;;;;;;;;20.90;43.10;;;;;;452681;262;1316;-50
2022/09/14 01:29:33;;;;;;;;;;;20.90;43.10;;;;;;452802;263;1310;-50
2022/09/14 01:31:35;;;;;;;;;;;20.90;43.10;;;;;;452630;263;1268;-50
2022/09/14 01:33:36;;;;;;;;;;;20.90;43.10;;;;;;453065;263;1341;-50
2022/09/14 01:35:37;;;;;;;;;;;20.90;43.00;;;;;;453001;263;2177;-50
2022/09/14 01:37:38;;;;;;;;;;;20.90;43.10;;;;;;453038;263;1242;-50
2022/09/14 01:39:40;;;;;;;;;;;20.90;43.10;;;;;;452176;263;1389;-50
2022/09/14 01:41:41;;;;;;;;;;;20.90;43.10;;;;;;452869;262;1336;-50
2022/09/14 01:43:42;;;;;;;;;;;20.90;43.00;;;;;;452991;263;1309;-50
2022/09/14 01:45:44;;;;;;;;;;;20.90;43.00;;;;;;452996;263;1246;-50
2022/09/14 01:47:46;;;;;;;;;;;20.90;43.00;;;;;;452747;262;1429;-51
2022/09/14 01:49:47;;;;;;;;;;;20.90;43.00;;;;;;453109;263;1248;-50
2022/09/14 01:51:49;;;;;;;;;;;20.90;43.00;;;;;;453108;263;1233;-50
2022/09/14 01:53:50;;;;;;;;;;;20.90;43.00;;;;;;453108;263;1377;-50
2022/09/14 01:55:51;;;;;;;;;;;20.90;43.00;;;;;;453008;263;2217;-50
2022/09/14 01:57:52;;;;;;;;;;;20.90;42.90;;;;;;453094;263;1280;-50
2022/09/14 01:59:54;;;;;;;;;;;20.90;42.90;;;;;;452912;263;1406;-50
2022/09/14 02:01:55;;;;;;;;;;;20.90;43.00;;;;;;453092;263;1422;-50
2022/09/14 02:03:56;;;;;;;;;;;20.90;42.90;;;;;;453067;263;1305;-50
2022/09/14 02:05:58;;;;;;;;;;;20.90;42.90;;;;;;452717;263;1270;-50
2022/09/14 02:07:59;;;;;;;;;;;20.90;42.90;;;;;;452955;263;1260;-50
2022/09/14 02:10:00;;;;;;;;;;;20.90;43.00;;;;;;453084;263;1309;-51
2022/09/14 02:12:02;;;;;;;;;;;20.80;43.10;;;;;;452880;262;1295;-50
2022/09/14 02:14:03;;;;;;;;;;;20.90;43.20;;;;;;452762;263;1262;-50
2022/09/14 02:16:04;;;;;;;;;;;20.90;43.10;;;;;;453124;262;2169;-50
2022/09/14 02:18:06;;;;;;;;;;;20.90;43.10;;;;;;452763;262;1292;-50
2022/09/14 02:20:07;;;;;;;;;;;20.90;43.10;;;;;;452913;263;1331;-51
2022/09/14 02:22:08;;;;;;;;;;;20.90;43.10;;;;;;452727;263;1615;-50
2022/09/14 02:24:10;;;;;;;;;;;20.90;43.10;;;;;;452744;262;1323;-50
2022/09/14 02:26:11;;;;;;;;;;;20.90;43.00;;;;;;452939;263;1367;-50
2022/09/14 02:28:13;;;;;;;;;;;20.90;43.00;;;;;;453089;263;1298;-50
2022/09/14 02:30:14;;;;;;;;;;;20.90;43.00;;;;;;453092;263;1359;-50
2022/09/14 02:32:15;;;;;;;;;;;20.90;43.00;;;;;;453091;263;1399;-51
2022/09/14 02:34:16;;;;;;;;;;;20.90;43.00;;;;;;452764;263;1316;-50
2022/09/14 02:36:18;;;;;;;;;;;20.90;43.00;;;;;;452494;263;2149;-50
2022/09/14 02:38:19;;;;;;;;;;;20.80;42.90;;;;;;453035;263;1370;-50
2022/09/14 02:40:20;;;;;;;;;;;20.90;43.00;;;;;;453070;263;1246;-50
2022/09/14 02:42:22;;;;;;;;;;;20.90;43.00;;;;;;452899;263;1104;-50
2022/09/14 02:44:23;;;;;;;;;;;20.80;42.90;;;;;;453100;263;1169;-50
2022/09/14 02:46:24;;;;;;;;;;;20.90;43.00;;;;;;453097;263;1277;-50
2022/09/14 02:48:26;;;;;;;;;;;20.80;42.90;;;;;;453020;263;1311;-50
2022/09/14 02:50:27;;;;;;;;;;;20.90;43.00;;;;;;452931;263;1395;-50
2022/09/14 02:52:28;;;;;;;;;;;20.80;42.90;;;;;;453053;263;1274;-50
2022/09/14 02:54:29;;;;;;;;;;;20.90;42.90;;;;;;452673;263;1411;-50
2022/09/14 02:56:31;;;;;;;;;;;20.90;42.90;;;;;;452706;263;2221;-50
2022/09/14 02:58:32;;;;;;;;;;;20.80;42.80;;;;;;452697;263;1241;-51
2022/09/14 03:00:34;;;;;;;;;;;20.80;42.90;;;;;;453094;263;1306;-50
2022/09/14 03:02:36;;;;;;;;;;;20.80;42.90;;;;;;453167;262;1352;-50
2022/09/14 03:04:37;;;;;;;;;;;20.90;42.90;;;;;;453017;263;1327;-50
2022/09/14 03:06:38;;;;;;;;;;;20.90;42.80;;;;;;453038;263;1288;-50
2022/09/14 03:08:40;;;;;;;;;;;20.90;42.80;;;;;;453139;262;1215;-50
2022/09/14 03:10:41;;;;;;;;;;;20.90;42.80;;;;;;452879;263;1247;-50
2022/09/14 03:12:42;;;;;;;;;;;20.90;42.70;;;;;;452900;263;1320;-50
2022/09/14 03:14:44;;;;;;;;;;;20.90;42.80;;;;;;452690;263;1185;-50
2022/09/14 03:16:45;;;;;;;;;;;20.80;42.80;;;;;;452669;263;2127;-50
2022/09/14 03:18:46;;;;;;;;;;;20.90;42.80;;;;;;453053;263;1442;-50
2022/09/14 03:20:47;;;;;;;;;;;20.80;42.80;;;;;;452810;263;1276;-50
2022/09/14 03:22:49;;;;;;;;;;;20.80;42.80;;;;;;452800;263;1238;-51
2022/09/14 03:24:50;;;;;;;;;;;20.90;42.80;;;;;;453056;262;1265;-51
2022/09/14 03:26:51;;;;;;;;;;;20.90;42.70;;;;;;452713;263;1331;-50
2022/09/14 03:28:53;;;;;;;;;;;20.90;42.70;;;;;;452762;263;1365;-50
2022/09/14 03:30:54;;;;;;;;;;;20.90;42.70;;;;;;452402;263;1331;-50
2022/09/14 03:32:55;;;;;;;;;;;20.80;42.70;;;;;;453016;263;1316;-50
2022/09/14 03:34:57;;;;;;;;;;;20.80;42.80;;;;;;453042;262;1284;-50
2022/09/14 03:36:58;;;;;;;;;;;20.80;42.90;;;;;;453028;263;1308;-49
2022/09/14 03:39:00;;;;;;;;;;;20.80;42.90;;;;;;453004;263;1322;-51
2022/09/14 03:41:01;;;;;;;;;;;20.80;43.10;;;;;;452596;263;1316;-50
2022/09/14 03:43:02;;;;;;;;;;;20.80;43.10;;;;;;452910;262;1245;-50
2022/09/14 03:45:04;;;;;;;;;;;20.70;43.20;;;;;;453076;263;1352;-50
2022/09/14 03:47:05;;;;;;;;;;;20.70;43.30;;;;;;453057;263;1239;-50
2022/09/14 03:49:06;;;;;;;;;;;20.70;43.40;;;;;;453087;263;1373;-50
2022/09/14 03:51:08;;;;;;;;;;;20.70;43.50;;;;;;453058;263;1279;-50
2022/09/14 03:53:09;;;;;;;;;;;20.70;43.40;;;;;;452678;262;1363;-50
2022/09/14 03:55:10;;;;;;;;;;;20.80;43.40;;;;;;452853;263;2177;-50
2022/09/14 03:57:12;;;;;;;;;;;21.00;43.20;;;;;;453066;262;1370;-50
2022/09/14 03:59:13;;;;;;;;;;;21.10;42.80;;;;;;452764;263;1255;-51
2022/09/14 04:01:14;;;;;;;;;;;21.30;42.50;;;;;;453016;263;1304;-50
2022/09/14 04:03:16;;;;;;;;;;;21.40;42.20;;;;;;453074;263;1307;-50
2022/09/14 04:05:17;;;;;;;;;;;21.60;41.90;;;;;;452761;263;1361;-50
2022/09/14 04:07:19;;;;;;;;;;;21.70;41.70;;;;;;453051;263;1358;-50
2022/09/14 04:09:20;;;;;;;;;;;21.80;41.60;;;;;;452748;263;1448;-51
2022/09/14 04:11:21;;;;;;;;;;;21.90;41.40;;;;;;452658;263;1346;-50
2022/09/14 04:13:22;;;;;;;;;;;21.90;41.30;;;;;;452919;263;1308;-50
2022/09/14 04:15:24;;;;;;;;;;;22.00;41.30;;;;;;452687;262;2225;-51
2022/09/14 04:17:25;;;;;;;;;;;22.00;41.20;;;;;;452650;263;1260;-51
2022/09/14 04:19:27;;;;;;;;;;;22.10;41.20;;;;;;452593;263;1518;-51
2022/09/14 04:21:28;;;;;;;;;;;22.10;41.20;;;;;;453055;263;1395;-51
2022/09/14 04:23:29;;;;;;;;;;;22.20;41.10;;;;;;453064;263;1241;-50
2022/09/14 04:25:30;;;;;;;;;;;22.20;41.10;;;;;;453024;263;1288;-51
2022/09/14 04:27:32;;;;;;;;;;;22.20;41.00;;;;;;452688;262;1270;-50
2022/09/14 04:29:33;;;;;;;;;;;22.30;41.00;;;;;;452490;263;1220;-51
2022/09/14 04:31:34;;;;;;;;;;;22.30;40.90;;;;;;453049;263;1263;-51
2022/09/14 04:33:36;;;;;;;;;;;22.30;40.90;;;;;;452685;263;1331;-50
2022/09/14 04:35:37;;;;;;;;;;;22.40;40.90;;;;;;452611;262;2185;-51
2022/09/14 04:37:38;;;;;;;;;;;22.40;40.90;;;;;;453030;263;1344;-50
2022/09/14 04:39:39;;;;;;;;;;;22.50;40.90;;;;;;452922;263;1319;-50
2022/09/14 04:41:41;;;;;;;;;;;22.50;40.90;;;;;;453052;263;1247;-51
2022/09/14 04:43:42;;;;;;;;;;;22.50;40.80;;;;;;452600;263;1309;-50
2022/09/14 04:45:44;;;;;;;;;;;22.50;40.80;;;;;;453001;263;1164;-50
2022/09/14 04:47:45;;;;;;;;;;;22.50;40.80;;;;;;452634;263;1391;-51
2022/09/14 04:49:46;;;;;;;;;;;22.60;40.80;;;;;;452849;263;1316;-51
2022/09/14 04:51:47;;;;;;;;;;;22.60;40.80;;;;;;452966;263;1241;-51
2022/09/14 04:53:49;;;;;;;;;;;22.60;40.80;;;;;;452699;262;1318;-51
2022/09/14 04:55:50;;;;;;;;;;;22.60;40.80;;;;;;452542;263;2198;-51
2022/09/14 04:57:52;;;;;;;;;;;22.70;40.80;;;;;;453032;263;1274;-50
2022/09/14 04:59:53;;;;;;;;;;;22.70;40.80;;;;;;452729;263;1260;-51
2022/09/14 05:01:54;;;;;;;;;;;22.70;40.80;;;;;;452943;263;1504;-51
2022/09/14 05:03:56;;;;;;;;;;;22.70;40.80;;;;;;452557;263;1273;-51
2022/09/14 05:05:57;;;;;;;;;;;22.70;40.70;;;;;;452929;263;1352;-51
2022/09/14 05:07:58;;;;;;;;;;;22.70;40.80;;;;;;452625;263;1316;-51
2022/09/14 05:09:59;;;;;;;;;;;22.80;40.80;;;;;;453054;263;1385;-51
2022/09/14 05:12:01;;;;;;;;;;;22.80;40.80;;;;;;453027;263;1306;-51
2022/09/14 05:14:02;;;;;;;;;;;22.80;40.80;;;;;;453042;263;1368;-51
2022/09/14 05:16:03;;;;;;;;;;;22.80;40.80;;;;;;452708;262;2213;-51
2022/09/14 05:18:05;;;;;;;;;;;22.80;40.80;;;;;;452857;263;1248;-51
2022/09/14 05:20:06;;;;;;;;;;;22.80;40.80;;;;;;453017;263;1252;-50
2022/09/14 05:22:08;;;;;;;;;;;22.90;40.80;;;;;;452561;263;1539;-50
2022/09/14 05:24:11;;;;;;;;;;;22.80;40.80;;;;;;452416;263;1292;-50
2022/09/14 05:26:10;;;;;;;;;;;22.90;40.80;;;;;;452874;263;2424;-51
2022/09/14 05:28:12;;;;;;;;;;;22.90;40.80;;;;;;453067;262;1350;-51
2022/09/14 05:30:13;;;;;;;;;;;22.90;40.80;;;;;;452580;263;1378;-50
2022/09/14 05:32:14;;;;;;;;;;;22.90;40.80;;;;;;452942;263;1353;-51
2022/09/14 05:34:15;;;;;;;;;;;22.90;40.80;;;;;;452821;263;1372;-51
2022/09/14 05:36:17;;;;;;;;;;;22.90;40.80;;;;;;452979;263;2228;-51
2022/09/14 05:38:18;;;;;;;;;;;23.00;40.80;;;;;;452912;263;1436;-50
2022/09/14 05:40:19;;;;;;;;;;;23.00;40.80;;;;;;452600;263;1355;-51
2022/09/14 05:42:21;;;;;;;;;;;23.00;40.80;;;;;;452824;263;1257;-51
2022/09/14 05:44:22;;;;;;;;;;;23.00;40.80;;;;;;452585;263;1394;-51
2022/09/14 05:46:24;;;;;;;;;;;23.00;40.80;;;;;;452959;263;1339;-51
2022/09/14 05:48:25;;;;;;;;;;;23.00;40.90;;;;;;453002;263;1349;-50
2022/09/14 05:50:26;;;;;;;;;;;23.00;40.80;;;;;;452977;263;1293;-51
2022/09/14 05:52:28;;;;;;;;;;;23.00;40.90;;;;;;452925;263;1335;-51
2022/09/14 05:54:29;;;;;;;;;;;23.00;40.90;;;;;;453051;263;1259;-51
2022/09/14 05:56:31;;;;;;;;;;;23.00;40.90;;;;;;452983;263;2173;-51
2022/09/14 05:58:32;;;;;;;;;;;23.00;41.00;;;;;;452643;263;1365;-51
2022/09/14 06:00:33;;;;;;;;;;;23.00;40.90;;;;;;452616;263;1562;-51
2022/09/14 06:02:35;;;;;;;;;;;23.00;41.20;;;;;;452681;263;1268;-50
2022/09/14 06:04:36;;;;;;;;;;;22.80;41.50;;;;;;452575;263;1305;-50
2022/09/14 06:06:38;;;;;;;;;;;22.60;42.00;;;;;;452776;263;1318;-51
2022/09/14 06:08:39;;;;;;;;;;;22.30;42.40;;;;;;452836;263;1254;-50
2022/09/14 06:10:40;;;;;;;;;;;22.20;42.90;;;;;;452545;262;1303;-51
2022/09/14 06:12:42;;;;;;;;;;;22.10;43.20;;;;;;452579;263;1249;-51
2022/09/14 06:14:43;;;;;;;;;;;22.00;43.50;;;;;;452624;263;1593;-51
2022/09/14 06:16:44;;;;;;;;;;;21.90;43.70;;;;;;452493;263;2224;-50
2022/09/14 06:18:46;;;;;;;;;;;21.90;44.00;;;;;;452647;263;1276;-50
2022/09/14 06:20:47;;;;;;;;;;;21.80;44.20;;;;;;452976;263;1321;-50
2022/09/14 06:22:48;;;;;;;;;;;21.70;44.40;;;;;;452717;263;1272;-52
2022/09/14 06:24:50;;;;;;;;;;;21.70;44.40;;;;;;452962;263;1354;-51
2022/09/14 06:26:51;;;;;;;;;;;21.60;44.60;;;;;;453076;262;1214;-51
2022/09/14 06:28:52;;;;;;;;;;;21.60;44.80;;;;;;452968;263;1132;-52
2022/09/14 06:30:54;;;;;;;;;;;21.60;45.00;;;;;;452607;263;1355;-51
2022/09/14 06:32:55;;;;;;;;;;;21.50;45.10;;;;;;452830;263;1275;-51
2022/09/14 06:34:56;;;;;;;;;;;21.50;45.30;;;;;;452598;263;1364;-52
2022/09/14 06:36:58;;;;;;;;;;;21.50;45.20;;;;;;452972;262;2157;-51
2022/09/14 06:38:59;;;;;;;;;;;21.50;45.20;;;;;;452962;262;1354;-51
2022/09/14 06:41:01;;;;;;;;;;;21.50;45.20;;;;;;452711;263;1229;-51
2022/09/14 06:43:02;;;;;;;;;;;21.50;45.20;;;;;;452888;263;2509;-51
2022/09/14 06:45:03;;;;;;;;;;;21.40;45.20;;;;;;452855;263;1216;-51
2022/09/14 06:47:04;;;;;;;;;;;21.40;45.20;;;;;;452551;263;1230;-52
2022/09/14 06:49:06;;;;;;;;;;;21.50;45.30;;;;;;452711;263;1207;-52
2022/09/14 06:51:07;;;;;;;;;;;21.40;45.30;;;;;;452577;262;1191;-52
2022/09/14 06:53:09;;;;;;;;;;;21.40;45.50;;;;;;452410;263;1309;-52
2022/09/14 06:55:10;;;;;;;;;;;21.40;45.60;;;;;;452453;263;1299;-51
2022/09/14 06:57:11;;;;;;;;;;;21.30;45.50;;;;;;452502;262;2161;-51
2022/09/14 06:59:13;;;;;;;;;;;21.40;45.70;;;;;;452471;263;1261;-52
2022/09/14 07:01:14;;;;;;;;;;;21.40;45.60;;;;;;452307;263;2618;-51
2022/09/14 07:03:15;;;;;;;;;;;21.40;45.50;;;;;;452396;263;1191;-52
2022/09/14 07:05:19;;;;;;;;;;;21.30;45.50;;;;;;452911;262;1300;-51
2022/09/14 07:07:18;;;;;;;;;;;21.30;45.50;;;;;;452807;262;1967;-51
2022/09/14 07:09:19;;;;;;;;;;;21.40;45.50;;;;;;452653;262;1101;-51
2022/09/14 07:11:21;;;;;;;;;;;21.30;45.50;;;;;;452518;263;1321;-51
2022/09/14 07:13:22;;;;;;;;;;;21.30;45.60;;;;;;452635;263;1201;-52
2022/09/14 07:15:23;;;;;;;;;;;21.30;45.70;;;;;;452679;263;1200;-51
2022/09/14 07:17:24;;;;;;;;;;;21.30;45.70;;;;;;452564;263;2189;-52
2022/09/14 07:19:26;;;;;;;;;;;21.30;45.70;;;;;;452658;263;1212;-51
2022/09/14 07:21:27;;;;;;;;;;;21.30;45.70;;;;;;452170;263;1127;-52
2022/09/14 07:23:29;;;;;;;;;;;21.30;45.70;;;;;;452904;263;1196;-51
2022/09/14 07:25:30;;;;;;;;;;;21.20;45.70;;;;;;452505;263;1260;-52
2022/09/14 07:27:31;;;;;;;;;;;21.20;45.70;;;;;;452483;263;1269;-51
2022/09/14 07:29:32;;;;;;;;;;;21.30;45.90;;;;;;452402;263;1244;-52
2022/09/14 07:31:34;;;;;;;;;;;21.20;45.80;;;;;;452524;262;1271;-52
2022/09/14 07:33:35;;;;;;;;;;;21.20;45.80;;;;;;452770;263;1175;-51
2022/09/14 07:35:36;;;;;;;;;;;21.20;45.80;;;;;;452400;263;1323;-51
2022/09/14 07:37:38;;;;;;;;;;;21.20;45.80;;;;;;452431;263;2187;-51
2022/09/14 07:39:39;;;;;;;;;;;21.20;46.10;;;;;;452681;262;1212;-51
2022/09/14 07:41:40;;;;;;;;;;;21.20;45.80;;;;;;452388;263;1424;-51
2022/09/14 07:43:42;;;;;;;;;;;21.20;45.90;;;;;;452575;263;1211;-51
2022/09/14 07:45:43;;;;;;;;;;;21.20;45.80;;;;;;452606;263;1299;-51
2022/09/14 07:47:44;;;;;;;;;;;21.20;46.00;;;;;;452485;263;1232;-51
2022/09/14 07:49:46;;;;;;;;;;;21.20;45.90;;;;;;452417;263;1228;-51
2022/09/14 07:51:47;;;;;;;;;;;21.20;46.10;;;;;;452554;263;1192;-51
2022/09/14 07:53:48;;;;;;;;;;;21.20;46.10;;;;;;452758;263;1260;-52
2022/09/14 07:55:50;;;;;;;;;;;21.20;46.00;;;;;;452381;263;1221;-52
2022/09/14 07:57:51;;;;;;;;;;;21.20;45.90;;;;;;452831;262;2221;-52
2022/09/14 07:59:52;;;;;;;;;;;21.20;46.10;;;;;;452642;262;1199;-51
2022/09/14 08:01:54;;;;;;;;;;;21.20;45.80;;;;;;452738;263;1252;-51
2022/09/14 08:03:55;;;;;;;;;;;21.20;46.10;;;;;;452592;263;1222;-51
2022/09/14 08:05:56;;;;;;;;;;;21.20;46.00;;;;;;452408;263;1363;-51
2022/09/14 08:07:58;;;;;;;;;;;21.20;46.10;;;;;;452486;263;1324;-51
2022/09/14 08:09:59;;;;;;;;;;;21.10;46.10;;;;;;452670;262;1302;-51
2022/09/14 08:12:00;;;;;;;;;;;21.20;46.10;;;;;;452784;263;1163;-52
2022/09/14 08:14:02;;;;;;;;;;;21.10;46.10;;;;;;452694;263;1506;-52
2022/09/14 08:16:03;;;;;;;;;;;21.20;46.00;;;;;;452531;263;1238;-52
2022/09/14 08:18:04;;;;;;;;;;;21.10;46.10;;;;;;452667;262;2212;-52
2022/09/14 08:20:06;;;;;;;;;;;21.10;46.10;;;;;;452415;263;1327;-51
2022/09/14 08:22:07;;;;;;;;;;;21.10;46.20;;;;;;452576;263;1338;-52
2022/09/14 08:24:09;;;;;;;;;;;21.10;46.20;;;;;;452550;263;1541;-52
2022/09/14 08:26:10;;;;;;;;;;;21.10;46.10;;;;;;452638;263;1322;-51
2022/09/14 08:28:11;;;;;;;;;;;21.20;46.10;;;;;;452430;263;1472;-51
2022/09/14 08:30:12;;;;;;;;;;;21.10;46.10;;;;;;452413;263;1631;-51
2022/09/14 08:32:14;;;;;;;;;;;21.20;46.30;;;;;;452321;263;1388;-51
2022/09/14 08:34:15;;;;;;;;;;;21.20;46.10;;;;;;452449;263;1541;-51
2022/09/14 08:36:16;;;;;;;;;;;21.20;46.20;;;;;;452398;263;2065;-52
2022/09/14 08:38:18;;;;;;;;;;;21.20;46.20;;;;;;452860;263;2213;-51
2022/09/14 08:40:19;;;;;;;;;;;21.20;46.20;;;;;;452507;262;1473;-51
2022/09/14 08:42:21;;;;;;;;;;;21.20;46.10;;;;;;452621;263;1349;-52
2022/09/14 08:44:22;;;;;;;;;;;21.20;46.30;;;;;;452746;263;2295;-51
2022/09/14 08:46:23;;;;;;;;;;;21.10;46.20;;;;;;452524;263;1208;-51
2022/09/14 08:48:24;;;;;;;;;;;21.10;46.30;;;;;;452333;263;1256;-51
2022/09/14 08:50:26;;;;;;;;;;;21.10;46.10;;;;;;452640;262;1276;-51
2022/09/14 08:52:28;;;;;;;;;;;21.10;46.30;;;;;;452519;263;1272;-52
2022/09/14 08:54:29;;;;;;;;;;;21.10;46.10;;;;;;452611;263;1230;-52
2022/09/14 08:56:30;;;;;;;;;;;21.10;46.30;;;;;;452349;263;2117;-51
2022/09/14 08:58:31;;;;;;;;;;;21.10;46.20;;;;;;452810;263;2220;-52
2022/09/14 09:00:33;;;;;;;;;;;21.10;46.50;;;;;;452507;263;1245;-51
2022/09/14 09:02:34;;;;;;;;;;;21.10;46.40;;;;;;452537;263;1541;-52
2022/09/14 09:04:35;;;;;;;;;;;21.10;46.30;;;;;;452552;263;1320;-51
2022/09/14 09:06:37;;;;;;;;;;;21.10;46.20;;;;;;452436;263;1433;-52
2022/09/14 09:08:38;;;;;;;;;;;21.10;46.50;;;;;;452446;263;1279;-50
2022/09/14 09:10:39;;;;;;;;;;;21.10;46.50;;;;;;452687;262;1841;-51
2022/09/14 09:12:41;;;;;;;;;;;21.10;46.40;;;;;;452567;263;1341;-51
2022/09/14 09:14:42;;;;;;;;;;;21.10;46.20;;;;;;452330;263;1326;-51
2022/09/14 09:16:43;;;;;;;;;;;21.10;46.60;;;;;;452598;263;1540;-51
2022/09/14 09:18:45;;;;;;;;;;;21.10;46.40;;;;;;452429;263;2220;-52
2022/09/14 09:20:46;;;;;;;;;;;21.10;46.40;;;;;;452807;263;1754;-52
2022/09/14 09:22:47;;;;;;;;;;;21.10;46.50;;;;;;452535;263;1261;-51
2022/09/14 09:24:49;;;;;;;;;;;21.10;46.50;;;;;;452454;263;1277;-52
2022/09/14 09:26:50;;;;;;;;;;;21.10;46.30;;;;;;452581;263;1243;-52
2022/09/14 09:28:51;;;;;;;;;;;21.10;46.40;;;;;;452465;263;1538;-51
2022/09/14 09:30:53;;;;;;;;;;;21.10;46.60;;;;;;452367;263;1239;-51
2022/09/14 09:32:54;;;;;;;;;;;21.10;46.30;;;;;;452695;263;1224;-52
2022/09/14 09:34:55;;;;;;;;;;;21.10;46.40;;;;;;452302;263;1294;-51
2022/09/14 09:36:59;;;;;;;;;;;21.10;46.30;;;;;;452714;263;1205;-51
2022/09/14 09:38:58;;;;;;;;;;;21.10;46.50;;;;;;452250;262;2224;-52
2022/09/14 09:41:00;;;;;;;;;;;21.10;46.40;;;;;;452734;263;1232;-51
2022/09/14 09:43:01;;;;;;;;;;;21.10;46.40;;;;;;452389;263;1240;-51
2022/09/14 09:45:02;;;;;;;;;;;21.10;46.50;;;;;;452388;263;1298;-52
2022/09/14 09:47:04;;;;;;;;;;;21.10;46.50;;;;;;452896;263;1211;-51
2022/09/14 09:49:05;;;;;;;;;;;21.10;46.60;;;;;;452465;262;1250;-52
2022/09/14 09:51:06;;;;;;;;;;;21.10;46.50;;;;;;452309;263;1433;-52
2022/09/14 09:53:08;;;;;;;;;;;21.10;46.40;;;;;;452359;263;1376;-52
2022/09/14 09:55:09;;;;;;;;;;;21.10;46.50;;;;;;452492;263;1351;-52
2022/09/14 09:57:10;;;;;;;;;;;21.10;46.60;;;;;;452615;263;1312;-51
2022/09/14 09:59:12;;;;;;;;;;;21.10;46.60;;;;;;452238;263;2209;-51
2022/09/14 10:01:13;;;;;;;;;;;21.10;46.80;;;;;;452352;263;1592;-51
2022/09/14 10:03:15;;;;;;;;;;;21.10;46.50;;;;;;452093;263;1392;-52
2022/09/14 10:05:16;;;;;;;;;;;21.10;46.70;;;;;;452095;263;1330;-52
2022/09/14 10:07:17;;;;;;;;;;;21.10;46.70;;;;;;452450;263;1338;-52
2022/09/14 10:09:19;;;;;;;;;;;21.00;46.90;;;;;;452092;263;1322;-52
2022/09/14 10:11:20;;;;;;;;;;;21.10;47.00;;;;;;452171;263;1365;-51
2022/09/14 10:13:21;;;;;;;;;;;21.10;46.90;;;;;;452418;263;1335;-52
2022/09/14 10:15:24;;;;;;;;;;;21.10;47.00;;;;;;452197;263;1407;-52
2022/09/14 10:17:24;;;;;;;;;;;21.10;46.90;;;;;;451919;263;2267;-51
2022/09/14 10:19:28;;;;;;;;;;;21.10;46.80;;;;;;451967;263;1427;-51
2022/09/14 10:21:26;;;;;;;;;;;21.10;46.80;;;;;;451949;263;1473;-51
2022/09/14 10:23:28;;;;;;;;;;;21.10;46.90;;;;;;452156;262;1294;-51
2022/09/14 10:25:29;;;;;;;;;;;21.10;46.90;;;;;;452267;263;1274;-51
2022/09/14 10:27:30;;;;;;;;;;;21.10;47.00;;;;;;452379;263;1334;-52
2022/09/14 10:29:33;;;;;;;;;;;21.10;46.90;;;;;;452255;263;1344;-52
2022/09/14 10:31:33;;;;;;;;;;;21.10;46.70;;;;;;452255;263;1495;-51
2022/09/14 10:33:34;;;;;;;;;;;21.10;46.80;;;;;;452682;263;1351;-52
2022/09/14 10:35:36;;;;;;;;;;;21.10;46.90;;;;;;452188;263;1335;-51
2022/09/14 10:37:37;;;;;;;;;;;21.10;46.90;;;;;;452591;263;2182;-52
2022/09/14 10:39:39;;;;;;;;;;;21.10;46.70;;;;;;452371;262;1309;-51
2022/09/14 10:41:40;;;;;;;;;;;21.10;46.80;;;;;;452363;263;1393;-51
2022/09/14 10:43:41;;;;;;;;;;;21.10;46.90;;;;;;452658;263;1458;-52
2022/09/14 10:45:43;;;;;;;;;;;21.10;46.70;;;;;;452377;263;1374;-52
2022/09/14 10:47:44;;;;;;;;;;;21.10;46.80;;;;;;452431;263;1294;-51
2022/09/14 10:49:46;;;;;;;;;;;21.20;46.90;;;;;;452676;263;1222;-51
2022/09/14 10:51:47;;;;;;;;;;;21.20;46.80;;;;;;452287;263;2424;-52
2022/09/14 10:53:48;;;;;;;;;;;21.20;46.80;;;;;;452411;263;1363;-51
2022/09/14 10:55:49;;;;;;;;;;;21.10;46.80;;;;;;452210;263;1224;-51
2022/09/14 10:57:51;;;;;;;;;;;21.10;46.90;;;;;;452756;262;2213;-51
2022/09/14 10:59:52;;;;;;;;;;;21.10;46.70;;;;;;452473;263;1211;-51
2022/09/14 11:01:53;;;;;;;;;;;21.10;46.80;;;;;;452368;263;1233;-51
2022/09/14 11:03:55;;;;;;;;;;;21.10;46.80;;;;;;452499;263;1268;-52
2022/09/14 11:05:56;;;;;;;;;;;21.10;46.80;;;;;;452488;263;1294;-51
2022/09/14 11:07:57;;;;;;;;;;;21.20;46.90;;;;;;452833;263;1237;-52
2022/09/14 11:09:59;;;;;;;;;;;21.20;46.90;;;;;;452620;263;1216;-51
2022/09/14 11:12:00;;;;;;;;;;;21.20;46.90;;;;;;452528;263;1265;-52
2022/09/14 11:14:01;;;;;;;;;;;21.10;46.90;;;;;;452530;262;1217;-52
2022/09/14 11:16:03;;;;;;;;;;;21.20;46.80;;;;;;452647;263;1292;-50
2022/09/14 11:18:04;;;;;;;;;;;21.20;46.80;;;;;;452857;262;2216;-51
2022/09/14 11:20:05;;;;;;;;;;;21.10;46.90;;;;;;452271;263;1401;-52
2022/09/14 11:22:07;;;;;;;;;;;21.20;47.00;;;;;;452527;263;1277;-51
2022/09/14 11:24:08;;;;;;;;;;;21.20;46.90;;;;;;452071;263;1194;-51
2022/09/14 11:26:09;;;;;;;;;;;21.20;47.00;;;;;;452340;263;1252;-51
2022/09/14 11:28:11;;;;;;;;;;;21.20;46.80;;;;;;452337;262;1211;-51
2022/09/14 11:30:12;;;;;;;;;;;21.20;46.80;;;;;;452299;263;1223;-51
2022/09/14 11:32:14;;;;;;;;;;;21.20;47.10;;;;;;452357;263;1597;-52
2022/09/14 11:34:15;;;;;;;;;;;21.20;46.90;;;;;;452592;263;2418;-51
2022/09/14 11:36:16;;;;;;;;;;;21.10;46.80;;;;;;452226;263;1599;-51
2022/09/14 11:38:17;;;;;;;;;;;21.20;46.90;;;;;;452598;263;2225;-52
2022/09/14 11:40:19;;;;;;;;;;;21.10;47.00;;;;;;452426;263;1085;-52
2022/09/14 11:42:20;;;;;;;;;;;21.20;47.00;;;;;;452227;263;1467;-51
2022/09/14 11:44:21;;;;;;;;;;;21.20;47.10;;;;;;452881;263;1201;-51
2022/09/14 11:46:23;;;;;;;;;;;21.20;47.00;;;;;;452361;262;1638;-52
2022/09/14 11:48:24;;;;;;;;;;;21.20;47.10;;;;;;452426;263;1261;-52
2022/09/14 11:50:25;;;;;;;;;;;21.20;47.30;;;;;;452441;263;1315;-52
2022/09/14 11:52:27;;;;;;;;;;;21.20;47.00;;;;;;452646;263;1283;-52
2022/09/14 11:54:28;;;;;;;;;;;21.10;47.20;;;;;;452355;263;1304;-51
2022/09/14 11:56:29;;;;;;;;;;;21.10;47.30;;;;;;452347;263;1241;-52